Weather History for Sidney-Richland, MT

Change the Weather History Date:

Monday, June 16, 2014

  Actual Average Record
Temperature  
Mean Temperature 60 °F -  
Max Temperature 77 °F 77 °F 94 °F (1987)
Min Temperature 42 °F 48 °F 30 °F (1915)
Degree Days  
Heating Degree Days 6    
Growing Degree Days 10 (Base 50)    
Moisture  
Dew Point 48 °F    
Average Humidity 64    
Maximum Humidity 93    
Minimum Humidity 41    
Precipitation  
Precipitation 0.00 in - - ()
Sea Level Pressure  
Sea Level Pressure 29.71 in    
Wind  
Wind Speed 6 mph (NE)    
Max Wind Speed 16 mph    
Max Gust Speed 23 mph    
Visibility 10 miles    
Events Thunderstorm    
Averages and records for this station are not official NWS values.
T = Trace of Precipitation, MM = Missing Value Source: NWS Daily Summary

Daily Weather History Graph

Daily Weather History Graph

Search for Another Location

Airport:

Trip Planner

Search our weather history database for the weather conditions in past years. The results will help you decide how hot, cold, wet, or windy it might be!

Date:

Astronomy

Jun. 16, 2014 Rise Set
Actual Time 4:57 AM MDT 8:57 PM MDT
Civil Twilight 4:17 AM MDT 9:38 PM MDT
Nautical Twilight 3:20 AM MDT 10:34 PM MDT
Astronomical Twilight 1:49 AM MDT 12:06 AM MDT
Moon 11:31 PM MDT (6/16) 9:20 AM MDT (6/16)
Length of Visible Light 17h 20m
Length of Day
15h 59m
Waning Gibbous, 82% of the Moon is Illuminated
Jun 16
Waning Gibbous
Jun 19
Last Quarter
Jun 27
New
Jul 5
First Quarter
Jul 12
Full

Hourly Weather History & Observations

Time (MDT) Temp. Windchill Dew Point Humidity Pressure Visibility Wind Dir Wind Speed Gust Speed Precip Events Conditions
12:15 AM 48.2 °F - 44.6 °F 87% 29.74 in 10.0 mi Calm Calm - N/A   Clear
12:35 AM 46.4 °F 45.2 °F 44.6 °F 93% 29.74 in 10.0 mi SW 3.5 mph - N/A   Clear
12:55 AM 46.4 °F - 42.8 °F 87% 29.75 in 10.0 mi Calm Calm - N/A   Clear
1:15 AM 46.4 °F - 42.8 °F 87% 29.74 in 10.0 mi Calm Calm - N/A   Clear
1:35 AM 44.6 °F - 41.0 °F 87% 29.74 in 10.0 mi Calm Calm - N/A   Clear
1:55 AM 44.6 °F - 39.2 °F 81% 29.74 in 10.0 mi Calm Calm - N/A   Clear
2:15 AM 44.6 °F - 39.2 °F 81% 29.74 in 10.0 mi Calm Calm - N/A   Clear
2:35 AM 42.8 °F - 39.2 °F 87% 29.73 in 10.0 mi Calm Calm - N/A   Clear
2:55 AM 42.8 °F 41.1 °F 39.2 °F 87% 29.73 in 10.0 mi NW 3.5 mph - N/A   Clear
3:15 AM 42.8 °F - 39.2 °F 87% 29.73 in 10.0 mi Calm Calm - N/A   Clear
3:35 AM 42.8 °F - 39.2 °F 87% 29.73 in 10.0 mi Calm Calm - N/A   Clear
3:55 AM 42.8 °F - 37.4 °F 81% 29.73 in 10.0 mi Calm Calm - N/A   Clear
4:15 AM 42.8 °F - 39.2 °F 87% 29.72 in 10.0 mi Calm Calm - N/A   Clear
4:35 AM 42.8 °F - 39.2 °F 87% 29.72 in 10.0 mi Calm Calm - N/A   Clear
4:55 AM 42.8 °F - 39.2 °F 87% 29.72 in 10.0 mi Calm Calm - N/A   Clear
5:15 AM 42.8 °F - 39.2 °F 87% 29.72 in 10.0 mi Calm Calm - N/A   Clear
5:35 AM 42.8 °F 39.3 °F 39.2 °F 87% 29.72 in 10.0 mi NNW 5.8 mph - N/A   Partly Cloudy
5:55 AM 44.6 °F 42.2 °F 42.8 °F 93% 29.72 in 10.0 mi NNW 4.6 mph - N/A   Partly Cloudy
6:15 AM 46.4 °F - 42.8 °F 87% 29.72 in 10.0 mi Calm Calm - N/A   Clear
6:35 AM 48.2 °F - 44.6 °F 87% 29.72 in 10.0 mi Calm Calm - N/A   Clear
6:55 AM 51.8 °F - 46.4 °F 82% 29.73 in 10.0 mi NE 4.6 mph - N/A   Partly Cloudy
7:15 AM 53.6 °F - 46.4 °F 77% 29.72 in 10.0 mi NNE 6.9 mph - N/A   Clear
7:35 AM 53.6 °F - 46.4 °F 77% 29.72 in 10.0 mi NNE 6.9 mph - N/A   Clear
7:55 AM 55.4 °F - 48.2 °F 77% 29.73 in 10.0 mi NE 4.6 mph - N/A   Clear
8:15 AM 55.4 °F - 48.2 °F 77% 29.73 in 10.0 mi NNE 8.1 mph - N/A   Clear
8:35 AM 55.4 °F - 48.2 °F 77% 29.72 in 10.0 mi NNE 8.1 mph - N/A   Mostly Cloudy
8:55 AM 57.2 °F - 48.2 °F 72% 29.73 in 10.0 mi NNE 8.1 mph - N/A   Overcast
9:35 AM 60.8 °F - 50.0 °F 68% 29.72 in 10.0 mi NNE 10.4 mph - N/A   Scattered Clouds
9:55 AM 62.6 °F - 51.8 °F 68% 29.71 in 10.0 mi NNE 11.5 mph - N/A   Partly Cloudy
10:15 AM 64.4 °F - 53.6 °F 68% 29.70 in 10.0 mi NE 11.5 mph - N/A   Scattered Clouds
10:35 AM 66.2 °F - 53.6 °F 64% 29.70 in 10.0 mi NNE 12.7 mph 17.3 mph N/A   Scattered Clouds
10:55 AM 66.2 °F - 53.6 °F 64% 29.70 in 10.0 mi NE 12.7 mph - N/A   Mostly Cloudy
11:15 AM 69.8 °F - 53.6 °F 56% 29.69 in 10.0 mi NE 15.0 mph - N/A   Scattered Clouds
11:35 AM 71.6 °F - 51.8 °F 50% 29.69 in 10.0 mi ENE 13.8 mph 18.4 mph N/A   Clear
11:55 AM 69.8 °F - 51.8 °F 53% 29.69 in 10.0 mi NE 13.8 mph - N/A   Clear
12:15 PM 73.4 °F - 51.8 °F 47% 29.69 in 10.0 mi NE 12.7 mph 18.4 mph N/A   Clear
12:35 PM 73.4 °F - 51.8 °F 47% 29.69 in 10.0 mi ENE 15.0 mph 19.6 mph N/A   Clear
12:55 PM 73.4 °F - 48.2 °F 41% 29.69 in 10.0 mi East 15.0 mph 18.4 mph N/A   Mostly Cloudy
1:15 PM 71.6 °F - 46.4 °F 41% 29.70 in 10.0 mi ENE 12.7 mph 18.4 mph N/A   Scattered Clouds
1:35 PM 71.6 °F - 48.2 °F 43% 29.69 in 10.0 mi ENE 15.0 mph - N/A   Scattered Clouds
1:55 PM 73.4 °F - 48.2 °F 41% 29.69 in 10.0 mi East 11.5 mph 19.6 mph N/A   Scattered Clouds
2:35 PM 73.4 °F - 48.2 °F 41% 29.69 in 10.0 mi East 15.0 mph - N/A   Overcast
2:55 PM 73.4 °F - 48.2 °F 41% 29.69 in 10.0 mi East 11.5 mph 18.4 mph N/A   Overcast
3:15 PM 75.2 °F - 50.0 °F 41% 29.69 in 10.0 mi ENE 11.5 mph - N/A   Scattered Clouds
3:35 PM 75.2 °F - 51.8 °F 44% 29.69 in 10.0 mi ENE 12.7 mph 17.3 mph N/A   Clear
3:55 PM 75.2 °F - 50.0 °F 41% 29.68 in 10.0 mi ENE 13.8 mph 20.7 mph N/A   Clear
4:15 PM 77.0 °F - 51.8 °F 41% 29.68 in 10.0 mi East 15.0 mph 21.9 mph N/A   Clear
4:35 PM 77.0 °F - 53.6 °F 44% 29.67 in 10.0 mi East 11.5 mph 17.3 mph N/A   Clear
4:55 PM 75.2 °F - 50.0 °F 41% 29.67 in 10.0 mi ENE 16.1 mph 23.0 mph N/A   Clear
5:15 PM 75.2 °F - 51.8 °F 44% 29.67 in 10.0 mi East 13.8 mph - N/A   Clear
5:35 PM 75.2 °F - 51.8 °F 44% 29.67 in 10.0 mi East 11.5 mph 19.6 mph N/A   Clear
5:55 PM 75.2 °F - 51.8 °F 44% 29.68 in 10.0 mi East 16.1 mph - N/A   Clear
6:15 PM 75.2 °F - 51.8 °F 44% 29.67 in 10.0 mi NE 13.8 mph 19.6 mph N/A   Partly Cloudy
6:35 PM 73.4 °F - 50.0 °F 44% 29.67 in 10.0 mi East 12.7 mph 19.6 mph N/A   Partly Cloudy
6:55 PM 73.4 °F - 50.0 °F 44% 29.68 in 10.0 mi ENE 15.0 mph - N/A   Mostly Cloudy
7:15 PM 71.6 °F - 50.0 °F 46% 29.68 in 10.0 mi NE 13.8 mph - N/A   Scattered Clouds
7:35 PM 71.6 °F - 51.8 °F 50% 29.69 in 10.0 mi NE 11.5 mph - N/A   Partly Cloudy
7:55 PM 69.8 °F - 51.8 °F 53% 29.70 in 10.0 mi NE 10.4 mph - N/A   Clear
8:15 PM 69.8 °F - 51.8 °F 53% 29.71 in 10.0 mi NE 9.2 mph - N/A Thunderstorm Clear
8:35 PM 68.0 °F - 53.6 °F 60% 29.71 in 10.0 mi NE 10.4 mph - N/A   Clear
8:55 PM 68.0 °F - 51.8 °F 56% 29.73 in 10.0 mi NE 10.4 mph - N/A   Scattered Clouds
9:15 PM 68.0 °F - 51.8 °F 56% 29.72 in 10.0 mi NE 13.8 mph - N/A   Mostly Cloudy
9:35 PM 66.2 °F - 51.8 °F 60% 29.73 in 10.0 mi NE 10.4 mph - N/A   Scattered Clouds
9:55 PM 66.2 °F - 51.8 °F 60% 29.73 in 10.0 mi NE 10.4 mph 17.3 mph N/A   Clear
10:15 PM 66.2 °F - 51.8 °F 60% 29.74 in 10.0 mi NE 10.4 mph - N/A   Mostly Cloudy
10:35 PM 66.2 °F - 51.8 °F 60% 29.74 in 10.0 mi NE 8.1 mph - N/A   Overcast
10:55 PM 66.2 °F - 51.8 °F 60% 29.74 in 10.0 mi NE 12.7 mph - N/A   Overcast
11:15 PM 64.4 °F - 51.8 °F 64% 29.75 in 10.0 mi NNE 8.1 mph - N/A   Mostly Cloudy
11:35 PM 64.4 °F - 51.8 °F 64% 29.74 in 10.0 mi NNE 9.2 mph - N/A   Mostly Cloudy
11:55 PM 64.4 °F - 51.8 °F 64% 29.75 in 10.0 mi NE 6.9 mph - N/A   Mostly Cloudy